Time;durP1;ratioP1;P1;durP2;ratioP2;P2;SDS_P1;SDS_P2;PMS_P1;PMS_P2;Temp;Humidity;BMP_temperature;BMP_pressure;BME280_temperature;BME280_humidity;BME280_pressure;Samples;Min_cycle;Max_cycle;Signal;HPM_P1;HPM_P2
2023/06/17 00:00:42;;;;;;;2.47;1.88;;;16.70;70.60;;;;;;4836866;29;20480;-69
2023/06/17 00:03:09;;;;;;;2.75;1.90;;;16.70;70.90;;;;;;4834318;29;20029;-69
2023/06/17 00:05:35;;;;;;;3.90;2.00;;;16.70;71.40;;;;;;4824102;29;20896;-69
2023/06/17 00:08:02;;;;;;;2.33;1.38;;;16.70;71.70;;;;;;4832544;29;20048;-69
2023/06/17 00:10:28;;;;;;;2.75;2.10;;;16.60;71.90;;;;;;4831955;29;20029;-69
2023/06/17 00:12:54;;;;;;;3.05;1.90;;;16.60;72.40;;;;;;4804460;29;20032;-69
2023/06/17 00:15:22;;;;;;;2.72;1.85;;;16.50;72.60;;;;;;4834397;29;20029;-69
2023/06/17 00:17:50;;;;;;;3.53;2.20;;;16.50;72.90;;;;;;4842577;29;20388;-69
2023/06/17 00:20:16;;;;;;;3.42;1.50;;;16.50;73.30;;;;;;4832283;29;20041;-69
2023/06/17 00:22:46;;;;;;;5.13;1.98;;;16.40;73.50;;;;;;4820037;29;23964;-68
2023/06/17 00:25:13;;;;;;;4.05;2.00;;;16.40;73.90;;;;;;4824974;29;20036;-68
2023/06/17 00:27:39;;;;;;;3.08;1.98;;;16.30;74.20;;;;;;4832502;29;20608;-69
2023/06/17 00:30:07;;;;;;;2.90;1.85;;;16.30;74.40;;;;;;4815004;29;20045;-69
2023/06/17 00:32:34;;;;;;;3.60;1.52;;;16.30;74.50;;;;;;4821560;29;20040;-68
2023/06/17 00:35:02;;;;;;;2.45;1.95;;;16.30;74.70;;;;;;4834958;29;20049;-68
2023/06/17 00:37:28;;;;;;;3.38;2.40;;;16.20;74.80;;;;;;4839688;29;20059;-69
2023/06/17 00:39:55;;;;;;;4.82;2.28;;;16.20;75.10;;;;;;4833603;29;20049;-68
2023/06/17 00:42:21;;;;;;;3.03;1.95;;;16.20;75.30;;;;;;4802385;29;20055;-69
2023/06/17 00:44:47;;;;;;;3.40;2.47;;;16.10;75.40;;;;;;4823871;29;20044;-69
2023/06/17 00:47:14;;;;;;;6.43;2.90;;;16.10;75.50;;;;;;4830868;29;20597;-69
2023/06/17 00:49:42;;;;;;;3.38;2.10;;;16.00;75.80;;;;;;4831113;29;20057;-69
2023/06/17 00:52:10;;;;;;;3.28;2.28;;;16.00;75.90;;;;;;4840230;29;20443;-69
2023/06/17 00:54:41;;;;;;;3.60;2.70;;;16.00;76.10;;;;;;4833451;29;22034;-69
2023/06/17 00:57:09;;;;;;;3.00;2.65;;;16.00;76.40;;;;;;4805836;29;20056;-68
2023/06/17 00:59:44;;;;;;;3.30;2.38;;;15.90;76.50;;;;;;4815334;29;20053;-68
2023/06/17 01:02:11;;;;;;;4.93;2.80;;;15.90;76.70;;;;;;4828860;29;20056;-68
2023/06/17 01:04:42;;;;;;;4.00;3.00;;;15.80;77.40;;;;;;4824945;29;20041;-68
2023/06/17 01:07:23;;;;;;;5.07;2.80;;;15.80;77.10;;;;;;4845216;29;20037;-68
2023/06/17 01:10:11;;;;;;;3.85;3.05;;;15.80;77.40;;;;;;4805277;29;22903;-68
2023/06/17 01:12:38;;;;;;;3.70;2.83;;;15.80;78.20;;;;;;4843510;29;20382;-68
2023/06/17 01:15:05;;;;;;;4.45;3.00;;;15.70;77.60;;;;;;4827301;29;20387;-68
2023/06/17 01:17:33;;;;;;;4.22;3.13;;;15.70;77.80;;;;;;4826688;29;20369;-68
2023/06/17 01:20:00;;;;;;;4.72;3.20;;;15.60;78.00;;;;;;4810238;29;20056;-68
2023/06/17 01:22:27;;;;;;;4.13;3.40;;;15.60;78.10;;;;;;4827951;29;21936;-68
2023/06/17 01:24:56;;;;;;;4.80;3.60;;;15.60;78.20;;;;;;4819311;29;20126;-68
2023/06/17 01:27:23;;;;;;;4.10;3.05;;;15.50;78.40;;;;;;4827590;29;20675;-68
2023/06/17 01:29:49;;;;;;;3.95;3.30;;;15.50;78.60;;;;;;4839473;29;20048;-68
2023/06/17 01:32:16;;;;;;;4.75;3.08;;;15.50;78.60;;;;;;4824243;29;20036;-68
2023/06/17 01:34:47;;;;;;;3.03;2.72;;;15.40;78.80;;;;;;4825785;29;20049;-68
2023/06/17 01:37:17;;;;;;;2.50;2.30;;;15.40;79.10;;;;;;4809323;29;20824;-68
2023/06/17 01:39:45;;;;;;;2.63;2.33;;;15.30;79.00;;;;;;4827304;29;20041;-68
2023/06/17 01:42:24;;;;;;;3.42;2.83;;;15.20;79.70;;;;;;4827269;29;20052;-68
2023/06/17 01:44:52;;;;;;;3.15;2.60;;;15.20;80.20;;;;;;4803233;29;20044;-68
2023/06/17 01:47:19;;;;;;;5.88;2.83;;;15.10;80.30;;;;;;4828049;29;20044;-68
2023/06/17 01:49:45;;;;;;;4.65;2.92;;;15.10;80.50;;;;;;4838531;29;20048;-68
2023/06/17 01:52:12;;;;;;;4.10;3.70;;;15.10;80.80;;;;;;4840209;29;20033;-68
2023/06/17 01:54:38;;;;;;;3.90;2.97;;;15.10;81.70;;;;;;4821622;29;20059;-68
2023/06/17 01:57:05;;;;;;;4.40;3.40;;;15.00;81.20;;;;;;4796501;29;20060;-68
2023/06/17 01:59:33;;;;;;;4.93;3.97;;;15.00;81.30;;;;;;4811755;29;20491;-68
2023/06/17 02:01:59;;;;;;;4.18;3.53;;;15.00;81.70;;;;;;4810243;29;20056;-68
2023/06/17 02:04:25;;;;;;;5.35;4.07;;;15.00;81.90;;;;;;4800492;29;20041;-68
2023/06/17 02:06:52;;;;;;;4.40;3.95;;;15.00;82.20;;;;;;4821203;29;20640;-69
2023/06/17 02:09:18;;;;;;;4.82;3.70;;;15.00;82.40;;;;;;4809506;29;20052;-68
2023/06/17 02:11:45;;;;;;;4.43;3.40;;;15.00;82.60;;;;;;4832411;29;20041;-68
2023/06/17 02:14:12;;;;;;;4.63;4.15;;;15.00;82.70;;;;;;4817662;29;20120;-68
2023/06/17 02:16:42;;;;;;;4.78;3.78;;;14.90;82.80;;;;;;4824598;29;20061;-68
2023/06/17 02:19:09;;;;;;;4.60;3.90;;;14.90;82.80;;;;;;4826626;29;20043;-68
2023/06/17 02:21:35;;;;;;;6.97;4.50;;;14.90;82.70;;;;;;4811018;29;20068;-68
2023/06/17 02:24:02;;;;;;;4.90;4.43;;;14.80;82.90;;;;;;4828141;29;20045;-68
2023/06/17 02:26:28;;;;;;;5.10;4.60;;;14.80;83.00;;;;;;4835444;29;20044;-68
2023/06/17 02:28:56;;;;;;;4.40;4.00;;;14.80;83.20;;;;;;4820253;29;20044;-68
2023/06/17 02:31:22;;;;;;;4.68;3.45;;;14.80;83.20;;;;;;4811051;29;20119;-68
2023/06/17 02:33:49;;;;;;;5.70;4.00;;;14.70;83.20;;;;;;4820600;29;21207;-68
2023/06/17 02:36:15;;;;;;;4.75;4.20;;;14.70;83.40;;;;;;4822544;29;20045;-68
2023/06/17 02:38:41;;;;;;;6.07;4.32;;;14.70;83.80;;;;;;4826535;29;20050;-69
2023/06/17 02:41:08;;;;;;;4.20;3.80;;;14.70;84.30;;;;;;4827611;29;20057;-68
2023/06/17 02:43:34;;;;;;;5.15;4.60;;;14.70;84.60;;;;;;4820142;29;20041;-68
2023/06/17 02:46:01;;;;;;;7.05;4.30;;;14.70;84.50;;;;;;4831503;29;20036;-68
2023/06/17 02:48:27;;;;;;;4.47;4.07;;;14.60;84.60;;;;;;4797832;29;20056;-68
2023/06/17 02:50:54;;;;;;;5.88;5.03;;;14.60;84.70;;;;;;4825446;29;20041;-68
2023/06/17 02:53:22;;;;;;;5.53;4.75;;;14.60;84.90;;;;;;4809650;29;20658;-68
2023/06/17 02:55:49;;;;;;;4.85;4.35;;;14.50;85.10;;;;;;4819522;29;20433;-68
2023/06/17 02:58:19;;;;;;;4.93;4.00;;;14.50;85.30;;;;;;4813913;29;20062;-68
2023/06/17 03:00:50;;;;;;;5.47;4.78;;;14.50;85.40;;;;;;4821428;29;20624;-68
2023/06/17 03:03:17;;;;;;;5.78;5.05;;;14.50;85.50;;;;;;4823664;29;20931;-68
2023/06/17 03:05:44;;;;;;;5.25;4.72;;;14.40;85.60;;;;;;4831944;29;20044;-68
2023/06/17 03:08:11;;;;;;;5.88;5.28;;;14.50;86.00;;;;;;4813873;29;20033;-68
2023/06/17 03:10:37;;;;;;;5.80;5.25;;;14.40;86.20;;;;;;4799045;29;20052;-68
2023/06/17 03:13:09;;;;;;;5.35;4.85;;;14.50;86.50;;;;;;4813886;29;20063;-68
2023/06/17 03:15:38;;;;;;;6.80;5.03;;;14.40;86.60;;;;;;4805591;29;20055;-68
2023/06/17 03:18:05;;;;;;;7.38;4.53;;;14.40;86.80;;;;;;4827277;29;20056;-68
2023/06/17 03:20:33;;;;;;;5.07;4.50;;;14.40;87.20;;;;;;4822602;29;20828;-68
2023/06/17 03:23:02;;;;;;;5.97;5.00;;;14.40;87.50;;;;;;4824692;29;20861;-68
2023/06/17 03:25:28;;;;;;;5.75;5.10;;;14.40;87.90;;;;;;4810171;29;20033;-68
2023/06/17 03:27:55;;;;;;;6.45;4.60;;;14.40;88.10;;;;;;4813005;29;20488;-68
2023/06/17 03:30:24;;;;;;;4.25;3.88;;;14.40;88.20;;;;;;4813140;29;20045;-68
2023/06/17 03:32:50;;;;;;;6.38;5.20;;;14.40;88.10;;;;;;4813126;29;20025;-68
2023/06/17 03:35:16;;;;;;;5.80;5.10;;;14.30;88.30;;;;;;4819947;29;20033;-68
2023/06/17 03:37:43;;;;;;;7.22;5.45;;;14.30;88.80;;;;;;4818408;29;20066;-68
2023/06/17 03:40:10;;;;;;;5.45;4.55;;;14.30;88.70;;;;;;4840684;29;21671;-68
2023/06/17 03:42:38;;;;;;;6.45;4.55;;;14.30;88.90;;;;;;4803378;29;20040;-68
2023/06/17 03:45:05;;;;;;;5.28;4.75;;;14.30;89.30;;;;;;4820210;29;20048;-68
2023/06/17 03:47:31;;;;;;;6.85;5.00;;;14.30;89.80;;;;;;4829394;29;20790;-68
2023/06/17 03:49:58;;;;;;;5.20;4.70;;;14.30;90.00;;;;;;4827828;29;20036;-68
2023/06/17 03:52:25;;;;;;;5.70;4.78;;;14.40;90.20;;;;;;4827702;29;23120;-68
2023/06/17 03:54:53;;;;;;;4.50;4.10;;;14.40;90.30;;;;;;4803965;29;20053;-68
2023/06/17 03:57:21;;;;;;;5.65;4.60;;;14.40;90.40;;;;;;4837946;29;20045;-68
2023/06/17 03:59:47;;;;;;;4.28;3.88;;;14.40;90.40;;;;;;4841385;29;20497;-68
2023/06/17 04:02:14;;;;;;;5.38;3.97;;;14.40;90.50;;;;;;4833497;29;20033;-68
2023/06/17 04:04:40;;;;;;;6.03;5.43;;;14.40;90.60;;;;;;4819965;29;21815;-68
2023/06/17 04:07:07;;;;;;;5.47;4.97;;;14.50;90.70;;;;;;4827001;29;20063;-68
2023/06/17 04:09:34;;;;;;;6.93;6.03;;;14.50;90.70;;;;;;4827814;29;20049;-68
2023/06/17 04:12:02;;;;;;;7.82;7.03;;;14.50;90.70;;;;;;4828914;29;20523;-68
2023/06/17 04:14:28;;;;;;;6.22;5.63;;;14.60;90.80;;;;;;4824034;29;20701;-68
2023/06/17 04:16:56;;;;;;;7.20;6.22;;;14.70;90.90;;;;;;4841404;29;20043;-68
2023/06/17 04:19:23;;;;;;;6.25;5.63;;;14.70;90.90;;;;;;4820828;29;20057;-68
2023/06/17 04:21:50;;;;;;;7.07;6.10;;;14.80;90.90;;;;;;4812565;29;20064;-68
2023/06/17 04:24:16;;;;;;;6.32;5.72;;;14.90;90.90;;;;;;4805189;29;20088;-68
2023/06/17 04:26:44;;;;;;;7.28;6.38;;;15.00;90.80;;;;;;4799561;29;20491;-68
2023/06/17 04:29:11;;;;;;;7.05;6.45;;;15.00;90.80;;;;;;4811429;29;20063;-68
2023/06/17 04:31:40;;;;;;;8.32;6.97;;;15.10;90.80;;;;;;4815120;29;20045;-69
2023/06/17 04:34:07;;;;;;;6.85;6.25;;;15.20;90.80;;;;;;4830072;29;20044;-68
2023/06/17 04:36:34;;;;;;;6.43;5.82;;;15.30;90.70;;;;;;4837366;29;20048;-68
2023/06/17 04:39:00;;;;;;;5.72;5.22;;;15.40;90.70;;;;;;4817018;29;20040;-68
2023/06/17 04:41:27;;;;;;;7.05;6.35;;;15.50;90.70;;;;;;4812825;29;20029;-68
2023/06/17 04:43:54;;;;;;;5.90;5.40;;;15.70;90.80;;;;;;4821290;29;20033;-68
2023/06/17 04:46:21;;;;;;;5.85;5.32;;;15.80;90.80;;;;;;4811597;29;20041;-68
2023/06/17 04:48:47;;;;;;;6.28;5.68;;;15.90;90.60;;;;;;4826869;29;20037;-68
2023/06/17 04:51:17;;;;;;;7.63;5.97;;;16.10;90.60;;;;;;4835000;29;20408;-68
2023/06/17 04:53:44;;;;;;;6.53;5.13;;;16.20;90.50;;;;;;4806941;29;21123;-68
2023/06/17 04:56:12;;;;;;;5.38;4.88;;;16.40;90.50;;;;;;4817833;29;20747;-68
2023/06/17 04:58:39;;;;;;;4.72;4.32;;;16.50;90.50;;;;;;4828403;29;20041;-68
2023/06/17 05:01:11;;;;;;;7.00;6.30;;;16.70;90.50;;;;;;4827071;29;20041;-68
2023/06/17 05:03:37;;;;;;;6.65;5.95;;;16.90;90.40;;;;;;4824236;29;20051;-68
2023/06/17 05:06:03;;;;;;;8.68;7.07;;;17.00;90.40;;;;;;4822203;29;20037;-68
2023/06/17 05:08:31;;;;;;;6.82;6.07;;;17.20;90.30;;;;;;4828672;29;20040;-68
2023/06/17 05:10:59;;;;;;;7.68;6.95;;;17.30;90.20;;;;;;4838878;29;20037;-68
2023/06/17 05:13:26;;;;;;;10.85;7.88;;;17.40;90.00;;;;;;4804323;29;20033;-68
2023/06/17 05:15:54;;;;;;;7.57;6.90;;;17.60;90.00;;;;;;4807668;29;20523;-68
2023/06/17 05:18:21;;;;;;;9.45;8.55;;;17.70;90.00;;;;;;4824424;29;21172;-68
2023/06/17 05:20:47;;;;;;;9.40;8.40;;;17.80;89.80;;;;;;4825729;29;20441;-68
2023/06/17 05:23:13;;;;;;;8.32;7.50;;;17.90;89.80;;;;;;4824663;29;20107;-68
2023/06/17 05:25:40;;;;;;;8.70;6.90;;;18.00;89.40;;;;;;4804958;29;20051;-68
2023/06/17 05:28:07;;;;;;;9.23;6.43;;;18.20;89.30;;;;;;4833805;29;20096;-68
2023/06/17 05:30:34;;;;;;;6.60;5.90;;;18.30;89.00;;;;;;4838377;29;20036;-68
2023/06/17 05:33:04;;;;;;;6.93;5.57;;;18.50;88.70;;;;;;4832631;29;20601;-68
2023/06/17 05:35:30;;;;;;;7.75;6.95;;;18.60;88.40;;;;;;4818526;29;20104;-68
2023/06/17 05:37:58;;;;;;;7.97;7.22;;;18.80;88.20;;;;;;4810650;29;20045;-68
2023/06/17 05:40:25;;;;;;;6.28;5.70;;;18.90;87.70;;;;;;4813841;29;21007;-68
2023/06/17 05:42:51;;;;;;;7.93;7.15;;;19.10;87.50;;;;;;4826785;29;20044;-68
2023/06/17 05:45:19;;;;;;;6.95;6.30;;;19.30;87.30;;;;;;4794950;29;20516;-69
2023/06/17 05:47:46;;;;;;;10.00;6.53;;;19.40;87.00;;;;;;4824554;29;20501;-69
2023/06/17 05:50:12;;;;;;;6.90;6.20;;;19.50;86.70;;;;;;4824114;29;20682;-69
2023/06/17 05:52:41;;;;;;;7.40;6.53;;;19.60;86.40;;;;;;4830032;29;20048;-69
2023/06/17 05:55:09;;;;;;;8.65;6.55;;;19.70;86.30;;;;;;4807087;29;20049;-70
2023/06/17 05:57:35;;;;;;;6.63;5.93;;;19.90;86.30;;;;;;4830577;29;20052;-70
2023/06/17 06:00:03;;;;;;;5.97;5.38;;;20.10;86.10;;;;;;4828412;29;20045;-70
2023/06/17 06:02:39;;;;;;;8.02;6.97;;;20.30;85.60;;;;;;4831311;29;20084;-68
2023/06/17 06:05:07;;;;;;;8.20;7.40;;;20.70;84.80;;;;;;4813526;29;20045;-70
2023/06/17 06:07:33;;;;;;;9.20;8.40;;;20.90;83.60;;;;;;4824756;29;20037;-70
2023/06/17 06:09:59;;;;;;;7.43;6.40;;;21.10;83.00;;;;;;4803491;29;20488;-69
2023/06/17 06:12:27;;;;;;;8.18;7.38;;;21.20;82.60;;;;;;4813134;29;20554;-70
2023/06/17 06:14:55;;;;;;;15.00;13.55;;;21.40;82.00;;;;;;4822220;29;20033;-69
2023/06/17 06:17:21;;;;;;;9.30;8.35;;;21.50;81.40;;;;;;4827630;29;20041;-70
2023/06/17 06:19:48;;;;;;;9.23;6.57;;;21.70;81.10;;;;;;4814597;29;20037;-70
2023/06/17 06:22:14;;;;;;;6.47;5.88;;;21.90;80.50;;;;;;4802797;29;20045;-68
2023/06/17 06:24:40;;;;;;;10.93;9.93;;;22.20;80.00;;;;;;4796957;29;20037;-70
2023/06/17 06:27:10;;;;;;;13.57;12.27;;;22.50;78.80;;;;;;4838679;29;20033;-68
2023/06/17 06:29:38;;;;;;;8.65;7.75;;;22.80;77.80;;;;;;4816215;29;20036;-69
2023/06/17 06:32:05;;;;;;;6.28;5.50;;;23.00;77.00;;;;;;4814375;29;20444;-69
2023/06/17 06:34:31;;;;;;;3.88;3.58;;;23.00;76.30;;;;;;4808652;29;20064;-69
2023/06/17 06:36:58;;;;;;;8.23;5.97;;;23.10;75.60;;;;;;4831390;29;20424;-70
2023/06/17 06:39:25;;;;;;;8.45;6.90;;;23.10;74.80;;;;;;4831773;29;20044;-69
2023/06/17 06:41:52;;;;;;;13.25;11.63;;;23.10;74.10;;;;;;4842757;29;20044;-69
2023/06/17 06:44:37;;;;;;;7.45;6.72;;;23.00;73.40;;;;;;4823117;29;20037;-70
2023/06/17 06:47:03;;;;;;;4.13;3.65;;;23.10;73.10;;;;;;4836521;29;20119;-68
2023/06/17 06:49:30;;;;;;;4.93;3.10;;;23.10;72.40;;;;;;4834751;29;20033;-68
2023/06/17 06:52:00;;;;;;;5.80;3.08;;;23.20;71.40;;;;;;4819294;29;20259;-68
2023/06/17 06:54:28;;;;;;;4.50;3.38;;;23.20;70.40;;;;;;4824381;29;20053;-68
2023/06/17 06:56:55;;;;;;;4.80;4.35;;;23.20;69.20;;;;;;4833839;29;20037;-68
2023/06/17 06:59:22;;;;;;;5.55;4.30;;;23.30;68.10;;;;;;4836844;29;20041;-67
2023/06/17 07:01:50;;;;;;;6.53;5.25;;;23.30;67.50;;;;;;4839728;29;20032;-68
2023/06/17 07:04:19;;;;;;;3.80;3.05;;;23.40;67.00;;;;;;4831533;29;20045;-69
2023/06/17 07:06:45;;;;;;;8.85;7.35;;;23.50;66.00;;;;;;4802068;29;20068;-68
2023/06/17 07:09:17;;;;;;;5.68;5.03;;;23.50;65.90;;;;;;4801219;29;20052;-68
2023/06/17 07:11:44;;;;;;;3.28;2.67;;;23.60;65.60;;;;;;4814532;29;20051;-68
2023/06/17 07:14:11;;;;;;;2.55;2.08;;;23.70;64.90;;;;;;4793691;29;20048;-68
2023/06/17 07:16:38;;;;;;;2.80;1.95;;;23.70;63.80;;;;;;4829679;29;20048;-68
2023/06/17 07:19:05;;;;;;;7.90;6.97;;;23.80;64.00;;;;;;4824085;29;20498;-68
2023/06/17 07:21:31;;;;;;;4.43;3.38;;;23.90;63.80;;;;;;4825103;29;20516;-68
2023/06/17 07:23:57;;;;;;;2.85;2.25;;;24.10;63.30;;;;;;4830800;29;20294;-67
2023/06/17 07:26:24;;;;;;;3.60;2.10;;;24.20;63.00;;;;;;4815981;29;22044;-67
2023/06/17 07:28:51;;;;;;;2.38;1.85;;;24.40;62.30;;;;;;4818284;29;20036;-67
2023/06/17 07:31:17;;;;;;;2.47;1.83;;;24.50;62.00;;;;;;4833458;29;20032;-67
2023/06/17 07:33:44;;;;;;;2.70;2.15;;;24.60;61.50;;;;;;4813445;29;22452;-67
2023/06/17 07:36:10;;;;;;;2.90;1.90;;;24.70;61.00;;;;;;4821316;29;20365;-67
2023/06/17 07:38:37;;;;;;;1.80;1.30;;;24.90;60.40;;;;;;4842599;29;20032;-68
2023/06/17 07:41:03;;;;;;;2.40;1.20;;;25.00;59.90;;;;;;4841525;29;20080;-67
2023/06/17 07:43:32;;;;;;;2.85;2.40;;;25.10;59.20;;;;;;4830712;29;20037;-67
2023/06/17 07:45:58;;;;;;;4.53;2.35;;;25.30;59.10;;;;;;4828218;29;20037;-68
2023/06/17 07:48:24;;;;;;;5.10;4.57;;;25.40;58.30;;;;;;4833022;29;20053;-68
2023/06/17 07:50:51;;;;;;;2.97;2.67;;;25.40;57.90;;;;;;4834301;29;20040;-67
2023/06/17 07:53:17;;;;;;;4.90;2.80;;;25.40;58.40;;;;;;4831018;29;20033;-67
2023/06/17 07:55:44;;;;;;;5.00;4.50;;;25.60;58.60;;;;;;4833763;29;20944;-68
2023/06/17 07:58:10;;;;;;;7.13;6.50;;;25.80;58.60;;;;;;4827682;29;20571;-68
2023/06/17 08:00:36;;;;;;;4.35;3.95;;;25.90;58.30;;;;;;4834295;29;20045;-68
2023/06/17 08:03:06;;;;;;;5.28;2.50;;;26.00;57.10;;;;;;4831436;29;20037;-67
2023/06/17 08:05:32;;;;;;;3.70;2.30;;;26.10;56.20;;;;;;4822854;29;20037;-68
2023/06/17 08:07:59;;;;;;;4.18;1.52;;;26.20;55.70;;;;;;4829448;29;20716;-67
2023/06/17 08:10:25;;;;;;;2.13;1.70;;;26.30;54.90;;;;;;4832698;29;20033;-67
2023/06/17 08:12:51;;;;;;;2.53;2.20;;;26.50;54.60;;;;;;4840324;29;20743;-67
2023/06/17 08:15:17;;;;;;;2.25;1.73;;;26.60;53.50;;;;;;4835552;29;20078;-67
2023/06/17 08:17:44;;;;;;;2.42;1.75;;;26.60;53.10;;;;;;4839520;29;20528;-67
2023/06/17 08:20:11;;;;;;;1.92;1.60;;;26.70;53.20;;;;;;4818003;29;20221;-67
2023/06/17 08:22:37;;;;;;;8.55;7.72;;;26.80;52.90;;;;;;4834817;29;20049;-67
2023/06/17 08:25:04;;;;;;;5.65;5.15;;;26.90;52.30;;;;;;4827993;29;20041;-67
2023/06/17 08:27:31;;;;;;;2.97;2.28;;;27.10;52.20;;;;;;4834362;29;20154;-67
2023/06/17 08:29:58;;;;;;;2.88;2.67;;;27.20;52.10;;;;;;4833869;29;20033;-67
2023/06/17 08:32:25;;;;;;;2.67;1.60;;;27.40;52.10;;;;;;4846873;29;21568;-67
2023/06/17 08:34:51;;;;;;;2.35;1.63;;;27.60;51.80;;;;;;4837698;29;20055;-67
2023/06/17 08:37:17;;;;;;;3.13;1.38;;;27.70;51.90;;;;;;4834583;29;20041;-68
2023/06/17 08:39:43;;;;;;;3.85;1.67;;;27.80;52.10;;;;;;4836879;29;20052;-68
2023/06/17 08:42:10;;;;;;;2.17;1.48;;;27.90;52.40;;;;;;4833283;29;20033;-67
2023/06/17 08:44:41;;;;;;;2.15;1.95;;;28.00;51.20;;;;;;4826893;29;20044;-68
2023/06/17 08:47:10;;;;;;;1.90;1.35;;;28.10;51.00;;;;;;4834863;29;20049;-67
2023/06/17 08:49:36;;;;;;;3.15;1.90;;;28.20;51.50;;;;;;4846568;29;20045;-67
2023/06/17 08:52:05;;;;;;;2.30;1.75;;;28.30;50.40;;;;;;4843468;29;20139;-67
2023/06/17 08:54:40;;;;;;;3.08;1.23;;;28.30;49.70;;;;;;4830813;29;20567;-68
2023/06/17 08:57:12;;;;;;;4.95;1.42;;;28.40;49.40;;;;;;4834483;29;20040;-67
2023/06/17 08:59:41;;;;;;;5.78;1.70;;;28.50;49.30;;;;;;4836013;29;20082;-67
2023/06/17 09:02:10;;;;;;;1.63;1.23;;;28.60;48.30;;;;;;4834368;29;20364;-66
2023/06/17 09:04:36;;;;;;;2.00;1.05;;;28.70;48.40;;;;;;4828287;29;20544;-67
2023/06/17 09:07:03;;;;;;;1.45;1.10;;;28.70;49.10;;;;;;4841213;29;20028;-66
2023/06/17 09:09:29;;;;;;;3.70;1.50;;;28.70;48.50;;;;;;4844425;29;20112;-66
2023/06/17 09:11:56;;;;;;;2.47;1.83;;;28.90;48.00;;;;;;4843464;29;20044;-66
2023/06/17 09:14:24;;;;;;;2.15;1.48;;;28.80;47.70;;;;;;4828208;29;20043;-66
2023/06/17 09:16:51;;;;;;;6.88;1.65;;;28.90;47.40;;;;;;4832340;29;20052;-66
2023/06/17 09:19:17;;;;;;;2.85;1.42;;;29.00;46.90;;;;;;4832444;29;20045;-66
2023/06/17 09:21:47;;;;;;;1.63;1.27;;;29.00;47.00;;;;;;4815559;29;20057;-66
2023/06/17 09:24:13;;;;;;;2.42;1.40;;;29.10;46.60;;;;;;4824263;29;21754;-66
2023/06/17 09:26:44;;;;;;;1.65;1.23;;;29.20;46.90;;;;;;4838093;29;20045;-66
2023/06/17 09:29:12;;;;;;;2.20;1.30;;;29.40;46.90;;;;;;4842484;29;20056;-67
2023/06/17 09:31:48;;;;;;;3.40;1.20;;;29.60;46.50;;;;;;4822662;29;20044;-67
2023/06/17 09:34:14;;;;;;;1.52;1.30;;;29.80;46.20;;;;;;4807833;29;20076;-66
2023/06/17 09:36:41;;;;;;;4.68;1.70;;;29.90;46.00;;;;;;4813454;29;20618;-67
2023/06/17 09:39:12;;;;;;;2.38;1.33;;;30.00;45.90;;;;;;4831825;29;20087;-66
2023/06/17 09:41:40;;;;;;;1.67;1.20;;;30.10;45.40;;;;;;4833530;29;20057;-66
2023/06/17 09:44:07;;;;;;;4.90;4.25;;;30.00;45.30;;;;;;4833547;29;20037;-67
2023/06/17 09:46:39;;;;;;;2.42;2.17;;;30.10;45.70;;;;;;4845453;29;20044;-67
2023/06/17 09:49:12;;;;;;;3.47;2.70;;;30.30;45.80;;;;;;4839308;29;20045;-67
2023/06/17 09:51:39;;;;;;;2.63;1.95;;;30.40;45.60;;;;;;4834125;29;20465;-66
2023/06/17 09:54:07;;;;;;;3.42;1.50;;;30.50;45.40;;;;;;4810174;29;20049;-67
2023/06/17 09:56:34;;;;;;;2.78;2.15;;;30.50;44.60;;;;;;4828391;29;20048;-67
2023/06/17 09:59:03;;;;;;;2.67;2.13;;;30.50;44.70;;;;;;4828233;29;20041;-66
2023/06/17 10:01:30;;;;;;;2.38;1.75;;;30.60;44.30;;;;;;4829435;29;20032;-67
2023/06/17 10:03:58;;;;;;;4.50;1.48;;;30.60;44.30;;;;;;4832577;29;20044;-66
2023/06/17 10:06:28;;;;;;;7.97;5.25;;;30.60;43.70;;;;;;4843497;29;20040;-67
2023/06/17 10:08:55;;;;;;;2.38;2.17;;;30.70;43.70;;;;;;4842663;29;20052;-66
2023/06/17 10:11:23;;;;;;;3.35;1.42;;;30.80;43.80;;;;;;4836831;29;20040;-67
2023/06/17 10:13:56;;;;;;;1.85;1.25;;;30.80;43.20;;;;;;4829980;29;20052;-71
2023/06/17 10:16:26;;;;;;;1.65;1.00;;;30.90;43.20;;;;;;4834942;29;20769;-67
2023/06/17 10:18:54;;;;;;;3.90;1.10;;;31.10;43.50;;;;;;4837240;29;20648;-67
2023/06/17 10:21:24;;;;;;;1.95;1.50;;;31.30;43.60;;;;;;4842259;29;20037;-66
2023/06/17 10:23:53;;;;;;;3.70;1.50;;;31.60;43.70;;;;;;4841661;29;20041;-66
2023/06/17 10:26:21;;;;;;;2.35;1.65;;;31.70;43.30;;;;;;4841416;29;20047;-66
2023/06/17 10:29:00;;;;;;;3.25;1.70;;;31.80;43.60;;;;;;4837336;29;20029;-71
2023/06/17 10:31:38;;;;;;;1.98;1.40;;;31.90;43.30;;;;;;4834220;29;20056;-66
2023/06/17 10:34:05;;;;;;;2.33;1.90;;;32.10;42.90;;;;;;4830244;29;21008;-66
2023/06/17 10:36:38;;;;;;;2.97;1.58;;;32.20;42.90;;;;;;4831865;29;20033;-67
2023/06/17 10:39:10;;;;;;;2.83;1.90;;;32.40;42.40;;;;;;4804050;29;20052;-66
2023/06/17 10:41:39;;;;;;;2.05;1.70;;;32.50;41.80;;;;;;4846404;29;20040;-66
2023/06/17 10:44:28;;;;;;;2.08;1.40;;;32.70;41.50;;;;;;4839210;29;20080;-66
2023/06/17 10:46:56;;;;;;;2.40;1.73;;;32.70;40.50;;;;;;4836080;29;20268;-66
2023/06/17 10:49:23;;;;;;;2.42;1.48;;;32.60;40.80;;;;;;4834874;29;20059;-66
2023/06/17 10:51:58;;;;;;;2.60;1.70;;;32.80;41.20;;;;;;4836609;29;20029;-67
2023/06/17 10:54:33;;;;;;;3.85;1.55;;;33.00;40.90;;;;;;4827993;29;20057;-66
2023/06/17 10:57:04;;;;;;;4.20;1.70;;;33.20;41.20;;;;;;4824888;29;20048;-66
2023/06/17 10:59:31;;;;;;;1.98;1.30;;;33.50;41.30;;;;;;4847055;29;20048;-67
2023/06/17 11:02:06;;;;;;;3.15;1.38;;;33.80;40.70;;;;;;4845364;29;20045;-66
2023/06/17 11:04:35;;;;;;;3.40;1.65;;;34.10;40.30;;;;;;4833572;29;20066;-67
2023/06/17 11:07:02;;;;;;;3.28;1.35;;;34.40;40.00;;;;;;4836904;29;20048;-66
2023/06/17 11:09:30;;;;;;;2.50;1.65;;;34.80;39.80;;;;;;4837125;29;20033;-67
2023/06/17 11:11:57;;;;;;;1.80;1.30;;;35.10;39.30;;;;;;4838758;29;20047;-67
2023/06/17 11:14:28;;;;;;;3.70;1.42;;;35.40;38.90;;;;;;4829813;29;20055;-67
2023/06/17 11:16:55;;;;;;;2.95;1.75;;;35.70;39.10;;;;;;4837131;29;20041;-67
2023/06/17 11:19:21;;;;;;;2.17;1.58;;;36.00;39.00;;;;;;4845707;29;20056;-67
2023/06/17 11:21:57;;;;;;;2.65;1.75;;;36.20;37.70;;;;;;4843047;29;20048;-66
2023/06/17 11:24:23;;;;;;;3.42;1.50;;;36.00;38.00;;;;;;4829947;29;20037;-67
2023/06/17 11:26:50;;;;;;;3.67;1.33;;;36.00;37.80;;;;;;4821381;29;20322;-66
2023/06/17 11:29:18;;;;;;;3.95;1.83;;;36.00;38.00;;;;;;4838427;29;20037;-66
2023/06/17 11:31:45;;;;;;;2.45;1.73;;;36.20;38.20;;;;;;4838879;29;20036;-67
2023/06/17 11:34:12;;;;;;;1.92;1.52;;;36.30;38.00;;;;;;4834502;29;20041;-66
2023/06/17 11:36:38;;;;;;;2.90;1.38;;;36.40;37.20;;;;;;4846429;29;20045;-67
2023/06/17 11:39:05;;;;;;;2.45;1.50;;;36.50;37.20;;;;;;4843094;29;20049;-67
2023/06/17 11:41:33;;;;;;;3.60;1.67;;;36.70;37.00;;;;;;4837234;29;20044;-67
2023/06/17 11:43:59;;;;;;;2.38;1.60;;;37.00;36.60;;;;;;4831783;29;20044;-66
2023/06/17 11:46:26;;;;;;;4.00;1.35;;;37.30;35.60;;;;;;4803391;29;20045;-67
2023/06/17 11:48:54;;;;;;;2.20;1.67;;;37.60;36.00;;;;;;4837454;29;20427;-67
2023/06/17 11:51:20;;;;;;;1.55;1.23;;;37.90;36.00;;;;;;4836621;29;20037;-67
2023/06/17 11:53:48;;;;;;;2.80;1.70;;;38.30;35.90;;;;;;4843100;29;20496;-66
2023/06/17 11:56:20;;;;;;;5.72;1.52;;;38.50;35.70;;;;;;4842710;29;20064;-66
2023/06/17 11:58:47;;;;;;;2.85;1.20;;;38.80;35.30;;;;;;4843016;29;20560;-67
2023/06/17 12:01:13;;;;;;;2.58;1.25;;;39.00;35.00;;;;;;4837046;29;20422;-66
2023/06/17 12:03:46;;;;;;;1.90;1.60;;;39.20;35.00;;;;;;4835123;29;20048;-66
2023/06/17 12:06:19;;;;;;;2.58;1.60;;;39.60;34.90;;;;;;4835853;29;20028;-67
2023/06/17 12:08:58;;;;;;;3.08;1.10;;;39.80;34.60;;;;;;4837290;29;20276;-66
2023/06/17 12:11:27;;;;;;;3.63;1.52;;;39.90;34.20;;;;;;4841680;29;20042;-67
2023/06/17 12:13:54;;;;;;;3.65;1.50;;;39.90;33.70;;;;;;4842073;29;20048;-67
2023/06/17 12:16:37;;;;;;;3.28;1.48;;;39.80;34.10;;;;;;4843660;29;20043;-66
2023/06/17 12:19:09;;;;;;;1.85;1.40;;;40.00;34.30;;;;;;4835710;29;20048;-67
2023/06/17 12:21:36;;;;;;;1.88;1.40;;;40.20;34.00;;;;;;4835648;29;20041;-66
2023/06/17 12:24:03;;;;;;;1.98;1.45;;;40.30;33.60;;;;;;4816386;29;20041;-66
2023/06/17 12:26:31;;;;;;;1.92;1.55;;;40.40;33.50;;;;;;4818891;29;20076;-66
2023/06/17 12:28:58;;;;;;;3.35;1.73;;;40.40;33.20;;;;;;4834748;29;20041;-67
2023/06/17 12:31:27;;;;;;;2.50;1.88;;;40.40;33.10;;;;;;4847109;29;20029;-67
2023/06/17 12:33:54;;;;;;;4.15;1.75;;;40.40;33.00;;;;;;4839795;29;20052;-67
2023/06/17 12:36:20;;;;;;;3.25;1.77;;;40.70;32.90;;;;;;4840038;29;20041;-67
2023/06/17 12:38:48;;;;;;;3.38;1.73;;;40.80;32.50;;;;;;4835316;29;20037;-67
2023/06/17 12:41:15;;;;;;;3.35;1.65;;;41.00;33.00;;;;;;4838107;29;20033;-67
2023/06/17 12:43:41;;;;;;;2.35;1.80;;;41.30;33.40;;;;;;4831473;29;20045;-66
2023/06/17 12:46:08;;;;;;;3.28;1.65;;;41.70;33.20;;;;;;4817529;29;20060;-67
2023/06/17 12:48:34;;;;;;;4.97;1.45;;;42.00;33.20;;;;;;4826223;29;20052;-67